Главная страница
METAR-TAF:

METAR-TAF

Аэропорты :

Моргантаун, Западная Виргиния, США

широта: 39-38-58N, долгота: 079-55-16W, высота над уровнем моря: 380 м

Текущие метеонаблюдения

Эта сводка был подготовлена 10 минут назад, в 15:53 UTC
Ветер 5 Узел от южный
Температура 4°C
Влажность 56%
Давление 1026 hPa
Видимость: 16.1 км
ясное небо

METAR: KMGW 151553Z 17005KT 10SM CLR 04/M04 A3029 RMK AO2 SLP268 T00441044

Время: 11:03 (16:03 UTC)

Прогноз

Эта сводка был подготовлена 4 часа и 40 минут назад, в 11:23 UTC
Прогноз действительный с 15-го 12 UTC до 16-го 12 UTC
Ветер 3 Узел от юго-западный
Видимость: 10 км
Рассеянная облачность на высоте 25000 фута
С 16-го 0300 UTC
Ветер 3 Узел от северный
Видимость: 10 км
Рассеянная облачность на высоте 5000 фута

TAF: KMGW 151123Z 1512/1612 22003KT P6SM BKN250 FM160300 01003KT P6SM BKN050

Метеонаблюдения и прогнозы для более 4000 аэропортов (сводки METAR и TAF).

Имеющиеся станции представлены на карте желтыми и красными точками.

Чтобы увидеть название станции, наведите на нее мышь.

Затем щелкните, чтобы увидеть метеонаблюдения и метеопрогнозы.

Управление картой: чтобы увеличить масштаб, щелкните зеленые кнопки с черным крестиком; чтобы уменьшить масштаб, щелкните зеленую кнопку с тире; для просмотра соседних карт щелкайте зеленые стрелки.


METAR-TAF: